createdAt,value
2018-11-11T00:01:42.955Z,6.30
2018-11-11T00:04:11.416Z,6.30
2018-11-11T00:06:39.493Z,6.20
2018-11-11T00:09:07.896Z,6.10
2018-11-11T00:11:35.638Z,6.10
2018-11-11T00:14:03.241Z,6.00
2018-11-11T00:16:30.762Z,6.00
2018-11-11T00:18:58.495Z,6.00
2018-11-11T00:21:26.420Z,5.90
2018-11-11T00:23:54.132Z,5.90
2018-11-11T00:26:22.152Z,5.80
2018-11-11T00:28:50.364Z,5.80
2018-11-11T00:31:18.615Z,5.70
2018-11-11T00:33:46.239Z,5.50
2018-11-11T00:36:14.576Z,5.40
2018-11-11T00:38:42.073Z,5.40
2018-11-11T00:41:10.416Z,5.40
2018-11-11T00:43:38.052Z,5.30
2018-11-11T00:46:05.620Z,5.30
2018-11-11T00:48:34.636Z,5.10
2018-11-11T00:51:02.700Z,5.10
2018-11-11T00:53:30.584Z,5.00
2018-11-11T00:55:59.276Z,5.00
2018-11-11T00:58:26.998Z,5.00
2018-11-11T01:00:55.188Z,4.90
2018-11-11T01:03:23.198Z,4.90
2018-11-11T01:05:52.335Z,4.90
2018-11-11T01:08:19.947Z,4.80
2018-11-11T01:10:47.456Z,4.80
2018-11-11T01:13:15.040Z,4.80
2018-11-11T01:15:42.520Z,4.70
2018-11-11T01:18:10.452Z,4.70
2018-11-11T01:20:39.361Z,4.70
2018-11-11T01:23:06.917Z,4.50
2018-11-11T01:25:36.623Z,4.50
2018-11-11T01:28:04.892Z,4.40
2018-11-11T01:30:33.680Z,4.40
2018-11-11T01:33:02.066Z,4.40
2018-11-11T01:35:29.560Z,4.40
2018-11-11T01:37:57.602Z,4.30
2018-11-11T01:40:25.088Z,4.30
2018-11-11T01:42:52.601Z,4.20
2018-11-11T01:45:20.187Z,4.20
2018-11-11T01:47:48.287Z,4.20
2018-11-11T01:50:17.056Z,4.20
2018-11-11T01:52:45.941Z,4.20
2018-11-11T01:55:14.808Z,4.30
2018-11-11T01:57:43.079Z,4.20
2018-11-11T02:00:13.111Z,4.10
2018-11-11T02:02:42.180Z,4.20
2018-11-11T02:05:11.599Z,4.20
2018-11-11T02:07:41.152Z,4.20
2018-11-11T02:10:09.588Z,4.30
2018-11-11T02:12:37.874Z,4.30
2018-11-11T02:15:06.880Z,4.40
2018-11-11T02:17:34.911Z,4.30
2018-11-11T02:20:02.829Z,4.30
2018-11-11T02:22:31.044Z,4.20
2018-11-11T02:24:59.333Z,4.20
2018-11-11T02:27:26.933Z,4.20
2018-11-11T02:29:54.864Z,4.20
2018-11-11T02:32:22.765Z,4.10
2018-11-11T02:34:50.836Z,4.20
2018-11-11T02:37:18.367Z,4.20
2018-11-11T02:39:45.888Z,4.20
2018-11-11T02:42:13.708Z,4.10
2018-11-11T02:44:41.214Z,4.10
2018-11-11T02:47:09.842Z,4.10
2018-11-11T02:49:37.964Z,4.00
2018-11-11T02:52:06.208Z,4.00
2018-11-11T02:54:34.308Z,4.00
2018-11-11T02:57:02.277Z,4.00
2018-11-11T02:59:29.800Z,4.10
2018-11-11T03:01:58.144Z,4.00
2018-11-11T03:04:25.735Z,4.10
2018-11-11T03:06:53.544Z,4.10
2018-11-11T03:09:21.048Z,4.10
2018-11-11T03:11:48.553Z,4.10
2018-11-11T03:14:16.268Z,4.00
2018-11-11T03:16:44.346Z,4.00
2018-11-11T03:19:11.932Z,4.00
2018-11-11T03:21:39.976Z,4.10
2018-11-11T03:24:07.582Z,4.10
2018-11-11T03:26:36.124Z,4.10
2018-11-11T03:29:04.272Z,4.10
2018-11-11T03:31:32.388Z,4.20
2018-11-11T03:34:00.885Z,4.20
2018-11-11T03:36:28.384Z,4.20
2018-11-11T03:38:55.873Z,4.20
2018-11-11T03:41:23.399Z,4.20
2018-11-11T03:43:50.887Z,4.10
2018-11-11T03:46:19.200Z,4.10
2018-11-11T03:48:47.060Z,4.10
2018-11-11T03:51:14.555Z,4.10
2018-11-11T03:53:42.612Z,4.00
2018-11-11T03:56:10.681Z,4.00
2018-11-11T03:58:38.295Z,4.10
2018-11-11T04:01:06.061Z,4.00
2018-11-11T04:03:34.396Z,4.00
2018-11-11T04:06:02.589Z,4.00
2018-11-11T04:08:30.760Z,4.00
2018-11-11T04:10:58.916Z,4.00
2018-11-11T04:13:26.427Z,4.00
2018-11-11T04:15:54.044Z,4.10
2018-11-11T04:18:21.575Z,4.10
2018-11-11T04:20:50.328Z,4.10
2018-11-11T04:23:17.855Z,4.10
2018-11-11T04:25:46.068Z,4.20
2018-11-11T04:28:13.585Z,4.20
2018-11-11T04:30:41.704Z,4.20
2018-11-11T04:33:09.189Z,4.30
2018-11-11T04:35:36.708Z,4.30
2018-11-11T04:38:05.112Z,4.30
2018-11-11T04:40:32.733Z,4.40
2018-11-11T04:43:01.206Z,4.40
2018-11-11T04:45:29.455Z,4.50
2018-11-11T04:47:57.322Z,4.50
2018-11-11T04:50:24.928Z,4.60
2018-11-11T04:52:53.678Z,4.60
2018-11-11T04:55:21.698Z,4.60
2018-11-11T04:57:49.183Z,4.80
2018-11-11T05:00:16.698Z,4.80
2018-11-11T05:02:44.761Z,4.90
2018-11-11T05:05:13.076Z,4.90
2018-11-11T05:07:41.177Z,5.00
2018-11-11T05:10:09.336Z,5.00
2018-11-11T05:12:36.996Z,5.10
2018-11-11T05:15:05.748Z,5.20
2018-11-11T05:17:33.632Z,5.20
2018-11-11T05:20:01.333Z,5.30
2018-11-11T05:22:29.599Z,5.30
2018-11-11T05:24:58.053Z,5.40
2018-11-11T05:27:26.336Z,5.40
2018-11-11T05:29:54.711Z,5.40
2018-11-11T05:32:22.194Z,5.50
2018-11-11T05:34:49.708Z,5.50
2018-11-11T05:37:17.312Z,5.50
2018-11-11T05:39:45.642Z,5.50
2018-11-11T05:42:13.169Z,5.60
2018-11-11T05:44:41.537Z,5.60
2018-11-11T05:47:09.707Z,5.60
2018-11-11T05:49:37.756Z,5.60
2018-11-11T05:52:05.292Z,5.70
2018-11-11T05:54:33.550Z,5.70
2018-11-11T05:57:01.830Z,5.80
2018-11-11T05:59:29.327Z,5.80
2018-11-11T06:01:57.164Z,5.80
2018-11-11T06:04:24.663Z,5.90
2018-11-11T06:06:52.688Z,6.00
2018-11-11T06:09:20.191Z,6.10
2018-11-11T06:11:47.677Z,6.10
2018-11-11T06:14:15.249Z,6.20
2018-11-11T06:16:42.756Z,6.10
2018-11-11T06:19:10.360Z,6.10
2018-11-11T06:21:38.472Z,6.10
2018-11-11T06:24:06.014Z,6.10
2018-11-11T06:26:34.533Z,6.10
2018-11-11T06:29:02.061Z,6.10
2018-11-11T06:31:30.381Z,6.10
2018-11-11T06:33:57.937Z,6.10
2018-11-11T06:36:25.404Z,6.10
2018-11-11T06:38:53.584Z,6.10
2018-11-11T06:41:21.764Z,6.00
2018-11-11T06:43:49.481Z,6.10
2018-11-11T06:46:16.999Z,6.10
2018-11-11T06:48:44.933Z,6.20
2018-11-11T06:51:12.488Z,6.20
2018-11-11T06:53:40.612Z,6.20
2018-11-11T06:56:08.485Z,6.20
2018-11-11T06:58:35.983Z,6.20
2018-11-11T07:01:04.524Z,6.20
2018-11-11T07:03:58.607Z,6.30
2018-11-11T07:06:27.280Z,6.40
2018-11-11T07:08:54.788Z,6.40
2018-11-11T07:11:22.332Z,6.40
2018-11-11T07:13:49.923Z,6.40
2018-11-11T07:16:17.426Z,6.40
2018-11-11T07:18:46.368Z,6.40
2018-11-11T07:21:14.821Z,6.40
2018-11-11T07:23:43.205Z,6.40
2018-11-11T07:26:11.288Z,6.30
2018-11-11T07:28:38.996Z,6.40
2018-11-11T07:31:07.650Z,6.50
2018-11-11T07:33:35.172Z,6.70
2018-11-11T07:36:03.744Z,6.60
2018-11-11T07:38:31.600Z,6.70
2018-11-11T07:40:59.120Z,6.80
2018-11-11T07:43:26.641Z,6.80
2018-11-11T07:45:54.183Z,6.90
2018-11-11T07:48:22.360Z,6.80
2018-11-11T07:50:50.416Z,6.90
2018-11-11T07:53:19.661Z,6.80
2018-11-11T07:55:47.875Z,6.80
2018-11-11T07:58:16.242Z,6.90
2018-11-11T08:00:44.360Z,7.00
2018-11-11T08:03:12.741Z,7.00
2018-11-11T08:05:40.831Z,7.00
2018-11-11T08:08:08.852Z,7.00
2018-11-11T08:10:47.969Z,7.00
2018-11-11T08:13:15.671Z,7.10
2018-11-11T08:15:44.588Z,7.10
2018-11-11T08:18:12.092Z,7.00
2018-11-11T08:20:40.517Z,6.90
2018-11-11T08:23:08.055Z,7.00
2018-11-11T08:25:36.097Z,7.10
2018-11-11T08:28:04.019Z,7.10
2018-11-11T08:30:32.345Z,7.20
2018-11-11T08:33:01.698Z,7.30
2018-11-11T08:35:29.251Z,7.30
2018-11-11T08:37:57.336Z,7.40
2018-11-11T08:40:25.541Z,7.50
2018-11-11T08:42:53.465Z,7.60
2018-11-11T08:45:21.677Z,7.70
2018-11-11T08:47:49.980Z,7.90
2018-11-11T08:50:18.265Z,8.10
2018-11-11T08:52:45.751Z,8.30
2018-11-11T08:55:16.050Z,8.50
2018-11-11T08:57:43.923Z,8.70
2018-11-11T09:00:12.974Z,8.90
2018-11-11T09:02:41.614Z,9.10
2018-11-11T09:05:09.175Z,9.20
2018-11-11T09:07:38.027Z,9.40
2018-11-11T09:10:08.144Z,9.70
2018-11-11T09:12:35.666Z,9.90
2018-11-11T09:15:04.153Z,10.10
2018-11-11T09:17:32.287Z,10.20
2018-11-11T09:19:59.823Z,10.30
2018-11-11T09:22:28.036Z,10.40
2018-11-11T09:24:56.231Z,10.40
2018-11-11T09:27:23.772Z,10.40
2018-11-11T09:29:52.184Z,10.40
2018-11-11T09:32:20.288Z,10.30
2018-11-11T09:34:48.132Z,10.20
2018-11-11T09:37:15.645Z,10.10
2018-11-11T09:39:43.127Z,10.00
2018-11-11T09:42:10.622Z,9.90
2018-11-11T09:44:38.156Z,9.90
2018-11-11T09:47:06.371Z,10.00
2018-11-11T09:49:34.415Z,10.20
2018-11-11T09:52:02.729Z,10.30
2018-11-11T09:54:30.721Z,10.30
2018-11-11T09:56:58.877Z,10.30
2018-11-11T09:59:26.663Z,10.30
2018-11-11T10:01:55.012Z,10.20
2018-11-11T10:04:30.332Z,10.30
2018-11-11T10:07:08.447Z,10.40
2018-11-11T10:09:45.400Z,10.50
2018-11-11T10:12:19.809Z,10.70
2018-11-11T10:14:52.496Z,10.90
2018-11-11T10:17:27.976Z,11.00
2018-11-11T10:20:03.856Z,11.10
2018-11-11T10:22:40.172Z,11.20
2018-11-11T10:26:17.430Z,11.40
2018-11-11T10:28:54.103Z,11.50
2018-11-11T10:31:30.162Z,11.70
2018-11-11T10:34:13.354Z,11.70
2018-11-11T10:36:46.484Z,11.80
2018-11-11T10:40:23.575Z,11.90
2018-11-11T10:42:58.698Z,12.00
2018-11-11T10:45:32.204Z,12.20
2018-11-11T10:48:03.065Z,12.40
2018-11-11T10:50:34.400Z,12.50
2018-11-11T10:53:03.204Z,12.50
2018-11-11T10:55:31.580Z,12.60
2018-11-11T10:57:59.119Z,12.80
2018-11-11T11:00:32.052Z,12.80
2018-11-11T11:03:00.708Z,12.90
2018-11-11T11:05:28.252Z,13.10
2018-11-11T11:07:56.460Z,13.20
2018-11-11T11:10:24.597Z,13.20
2018-11-11T11:12:53.017Z,13.40
2018-11-11T11:15:21.084Z,13.50
2018-11-11T11:17:48.687Z,13.50
2018-11-11T11:20:16.633Z,13.60
2018-11-11T11:22:44.194Z,13.70
2018-11-11T11:25:12.675Z,13.80
2018-11-11T11:27:41.001Z,13.90
2018-11-11T11:30:11.488Z,14.00
2018-11-11T11:32:39.091Z,14.10
2018-11-11T11:35:08.679Z,14.20
2018-11-11T11:37:36.832Z,14.20
2018-11-11T11:40:05.543Z,14.30
2018-11-11T11:42:34.029Z,14.30
2018-11-11T11:45:01.540Z,14.30
2018-11-11T11:47:29.175Z,14.40
2018-11-11T11:49:57.367Z,14.40
2018-11-11T11:52:24.906Z,14.50
2018-11-11T11:54:53.177Z,14.50
2018-11-11T11:57:20.705Z,14.50
2018-11-11T11:59:48.232Z,14.60
2018-11-11T12:02:17.252Z,14.60
2018-11-11T12:04:45.833Z,14.60
2018-11-11T12:07:13.892Z,14.70
2018-11-11T12:09:41.412Z,14.70
2018-11-11T12:12:09.554Z,14.80
2018-11-11T12:14:37.080Z,14.80
2018-11-11T12:17:06.439Z,14.90
2018-11-11T12:19:35.018Z,14.90
2018-11-11T12:22:02.939Z,15.00
2018-11-11T12:24:30.972Z,15.00
2018-11-11T12:26:58.983Z,15.10
2018-11-11T12:29:26.476Z,15.20
2018-11-11T12:31:54.084Z,15.10
2018-11-11T12:34:21.984Z,15.10
2018-11-11T12:36:49.508Z,15.10
2018-11-11T12:39:17.925Z,15.10
2018-11-11T12:41:45.871Z,15.10
2018-11-11T12:44:13.408Z,15.10
2018-11-11T12:46:41.499Z,15.10
2018-11-11T12:49:09.584Z,15.10
2018-11-11T12:51:37.102Z,15.10
2018-11-11T12:54:04.670Z,15.10
2018-11-11T12:56:32.517Z,15.10
2018-11-11T12:59:01.260Z,15.10
2018-11-11T13:01:28.792Z,15.10
2018-11-11T13:03:56.944Z,15.20
2018-11-11T13:06:24.560Z,15.20
2018-11-11T13:08:52.912Z,15.20
2018-11-11T13:11:21.147Z,15.10
2018-11-11T13:13:48.746Z,15.10
2018-11-11T13:17:46.568Z,15.10
2018-11-11T13:20:16.756Z,15.10
2018-11-11T13:22:44.380Z,15.10
2018-11-11T13:25:12.967Z,15.10
2018-11-11T13:27:40.476Z,15.10
2018-11-11T13:30:09.923Z,15.10
2018-11-11T13:32:37.887Z,15.10
2018-11-11T13:35:06.843Z,15.00
2018-11-11T13:37:35.124Z,15.00
2018-11-11T13:40:03.952Z,14.70
2018-11-11T13:42:32.190Z,14.60
2018-11-11T13:45:00.222Z,14.50
2018-11-11T13:47:27.823Z,14.30
2018-11-11T13:49:55.828Z,14.10
2018-11-11T13:52:23.364Z,13.90
2018-11-11T13:54:52.269Z,13.80
2018-11-11T13:57:19.792Z,13.70
2018-11-11T13:59:47.401Z,13.50
2018-11-11T14:02:16.071Z,13.50
2018-11-11T14:04:43.560Z,13.40
2018-11-11T14:07:11.887Z,13.30
2018-11-11T14:09:39.391Z,13.10
2018-11-11T14:12:07.366Z,13.00
2018-11-11T14:14:34.861Z,12.90
2018-11-11T14:17:02.389Z,12.80
2018-11-11T14:19:30.571Z,12.70
2018-11-11T14:21:58.895Z,12.60
2018-11-11T14:24:27.185Z,12.50
2018-11-11T14:26:55.267Z,12.40
2018-11-11T14:29:22.869Z,12.30
2018-11-11T14:31:50.366Z,12.20
2018-11-11T14:34:18.472Z,12.10
2018-11-11T14:36:46.085Z,12.00
2018-11-11T14:39:14.524Z,11.90
2018-11-11T14:41:43.784Z,11.80
2018-11-11T14:44:11.328Z,11.70
2018-11-11T14:46:39.980Z,11.60
2018-11-11T14:49:09.750Z,11.40
2018-11-11T14:51:37.604Z,11.40
2018-11-11T14:54:06.036Z,11.30
2018-11-11T14:56:34.839Z,11.20
2018-11-11T14:59:02.984Z,11.10
2018-11-11T15:01:30.595Z,11.10
2018-11-11T15:03:59.370Z,11.00
2018-11-11T15:06:26.983Z,10.90
2018-11-11T15:08:55.088Z,10.90
2018-11-11T15:11:23.199Z,10.80
2018-11-11T15:13:50.718Z,10.70
2018-11-11T15:16:19.125Z,10.60
2018-11-11T15:18:47.021Z,10.60
2018-11-11T15:21:15.695Z,10.50
2018-11-11T15:23:43.716Z,10.40
2018-11-11T15:26:11.853Z,10.30
2018-11-11T15:28:39.383Z,10.20
2018-11-11T15:31:07.825Z,10.10
2018-11-11T15:33:35.263Z,10.00
2018-11-11T15:36:02.847Z,10.00
2018-11-11T15:38:31.100Z,9.90
2018-11-11T15:40:58.591Z,9.80
2018-11-11T15:43:26.948Z,9.70
2018-11-11T15:45:54.455Z,9.60
2018-11-11T15:48:23.313Z,9.60
2018-11-11T15:50:52.103Z,9.50
2018-11-11T15:53:19.676Z,9.40
2018-11-11T15:55:48.048Z,9.30
2018-11-11T15:58:16.116Z,9.20
2018-11-11T16:00:44.716Z,9.20
2018-11-11T16:03:12.860Z,9.00
2018-11-11T16:05:40.573Z,9.00
2018-11-11T16:08:08.735Z,8.90
2018-11-11T16:10:36.391Z,8.90
2018-11-11T16:13:04.670Z,8.90
2018-11-11T16:15:40.370Z,8.80
2018-11-11T16:18:11.724Z,8.70
2018-11-11T16:20:39.973Z,8.60
2018-11-11T16:23:08.500Z,8.60
2018-11-11T16:25:37.062Z,8.60
2018-11-11T16:28:05.862Z,8.50
2018-11-11T16:30:35.074Z,8.50
2018-11-11T16:33:03.184Z,8.30
2018-11-11T16:35:31.591Z,8.30
2018-11-11T16:37:59.952Z,8.20
2018-11-11T16:40:30.276Z,8.20
2018-11-11T16:42:58.178Z,8.20
2018-11-11T16:45:27.292Z,8.10
2018-11-11T16:47:55.511Z,8.00
2018-11-11T16:50:26.316Z,8.00
2018-11-11T16:52:55.204Z,7.90
2018-11-11T16:55:25.365Z,7.90
2018-11-11T16:57:53.600Z,7.80
2018-11-11T17:00:24.025Z,7.70
2018-11-11T17:02:52.882Z,7.70
2018-11-11T17:05:25.866Z,7.70
2018-11-11T17:07:54.588Z,7.60
2018-11-11T17:10:23.663Z,7.60
2018-11-11T17:12:53.024Z,7.50
2018-11-11T17:15:22.972Z,7.40
2018-11-11T17:17:51.415Z,7.40
2018-11-11T17:20:21.589Z,7.40
2018-11-11T17:22:50.805Z,7.40
2018-11-11T17:25:20.199Z,7.30
2018-11-11T17:27:48.202Z,7.30
2018-11-11T17:30:19.428Z,7.20
2018-11-11T17:32:48.497Z,7.10
2018-11-11T17:35:17.436Z,7.10
2018-11-11T17:37:45.511Z,7.10
2018-11-11T17:40:17.455Z,7.10
2018-11-11T17:42:46.602Z,7.10
2018-11-11T17:45:14.516Z,7.10
2018-11-11T17:47:43.675Z,7.10
2018-11-11T17:50:15.173Z,7.10
2018-11-11T17:52:43.607Z,6.90
2018-11-11T17:55:13.622Z,6.90
2018-11-11T17:57:42.431Z,6.90
2018-11-11T18:00:17.792Z,6.90
2018-11-11T18:02:47.247Z,6.90
2018-11-11T18:05:17.102Z,6.80
2018-11-11T18:07:45.379Z,6.90
2018-11-11T18:10:14.968Z,6.90
2018-11-11T18:12:43.073Z,6.80
2018-11-11T18:15:12.503Z,6.80
2018-11-11T18:17:41.261Z,6.80
2018-11-11T18:20:12.772Z,6.80
2018-11-11T18:22:41.065Z,6.80
2018-11-11T18:25:09.272Z,6.70
2018-11-11T18:27:37.766Z,6.70
2018-11-11T18:30:09.961Z,6.70
2018-11-11T18:32:38.184Z,6.70
2018-11-11T18:35:08.052Z,6.70
2018-11-11T18:37:35.964Z,6.60
2018-11-11T18:40:04.755Z,6.70
2018-11-11T18:42:32.224Z,6.80
2018-11-11T18:45:00.565Z,6.80
2018-11-11T18:47:28.640Z,6.80
2018-11-11T18:49:57.409Z,6.80
2018-11-11T18:52:25.417Z,6.90
2018-11-11T18:54:54.775Z,6.90
2018-11-11T18:57:22.897Z,6.90
2018-11-11T18:59:50.350Z,7.00
2018-11-11T19:02:19.208Z,7.00
2018-11-11T19:04:48.820Z,7.00
2018-11-11T19:07:16.951Z,7.00
2018-11-11T19:09:45.607Z,7.00
2018-11-11T19:12:13.129Z,7.00
2018-11-11T19:14:40.856Z,6.90
2018-11-11T19:17:08.445Z,7.10
2018-11-11T19:19:36.044Z,7.20
2018-11-11T19:22:04.352Z,7.20
2018-11-11T19:24:32.749Z,7.30
2018-11-11T19:27:00.263Z,7.30
2018-11-11T19:29:28.723Z,7.30
2018-11-11T19:31:57.016Z,7.30
2018-11-11T19:34:25.231Z,7.30
2018-11-11T19:36:54.684Z,7.20
2018-11-11T19:39:22.364Z,7.30
2018-11-11T19:41:49.984Z,7.30
2018-11-11T19:44:18.101Z,7.30
2018-11-11T19:46:45.709Z,7.40
2018-11-11T19:49:13.740Z,7.50
2018-11-11T19:51:42.366Z,7.50
2018-11-11T20:00:58.054Z,7.70
2018-11-11T20:03:26.300Z,7.70
2018-11-11T20:05:54.100Z,7.70
2018-11-11T20:08:22.929Z,7.50
2018-11-11T20:10:50.527Z,7.50
2018-11-11T20:13:18.092Z,7.50
2018-11-11T20:15:45.704Z,7.40
2018-11-11T20:19:42.808Z,7.40
2018-11-11T20:22:10.893Z,7.30
2018-11-11T20:24:39.137Z,7.20
2018-11-11T20:27:08.686Z,7.20
2018-11-11T20:29:36.740Z,7.00
2018-11-11T20:32:04.343Z,7.00
2018-11-11T20:34:32.682Z,6.90
2018-11-11T20:37:00.224Z,6.90
2018-11-11T20:39:28.526Z,6.80
2018-11-11T20:41:56.662Z,6.70
2018-11-11T20:44:24.248Z,6.50
2018-11-11T20:46:52.351Z,6.60
2018-11-11T20:49:20.469Z,6.50
2018-11-11T20:51:48.116Z,6.50
2018-11-11T20:54:15.660Z,6.40
2018-11-11T20:56:43.932Z,6.50
2018-11-11T20:59:11.388Z,6.40
2018-11-11T21:01:40.400Z,6.40
2018-11-11T21:04:07.997Z,6.40
2018-11-11T21:06:36.428Z,6.30
2018-11-11T21:09:08.545Z,6.30
2018-11-11T21:11:36.136Z,6.30
2018-11-11T21:14:03.864Z,6.20
2018-11-11T21:16:31.944Z,6.20
2018-11-11T21:18:59.519Z,6.20
2018-11-11T21:21:27.823Z,6.10
2018-11-11T21:23:55.385Z,6.10
2018-11-11T21:26:24.766Z,6.10
2018-11-11T21:28:54.294Z,6.10
2018-11-11T21:31:22.404Z,6.00
2018-11-11T21:33:50.503Z,6.00
2018-11-11T21:36:18.577Z,5.90
2018-11-11T21:38:47.191Z,5.90
2018-11-11T21:41:14.839Z,5.80
2018-11-11T21:43:43.590Z,5.80
2018-11-11T21:46:11.151Z,5.70
2018-11-11T21:48:39.536Z,5.70
2018-11-11T21:51:07.102Z,5.60
2018-11-11T21:53:36.996Z,5.60
2018-11-11T21:56:05.614Z,5.60
2018-11-11T21:58:34.624Z,5.60
2018-11-11T22:01:02.766Z,5.60
2018-11-11T22:03:30.759Z,5.50
2018-11-11T22:06:00.051Z,5.50
2018-11-11T22:08:28.895Z,5.40
2018-11-11T22:10:56.578Z,5.50
2018-11-11T22:13:24.398Z,5.40
2018-11-11T22:15:52.345Z,5.40
2018-11-11T22:18:20.711Z,5.40
2018-11-11T22:20:49.180Z,5.40
2018-11-11T22:23:16.783Z,5.40
2018-11-11T22:25:44.951Z,5.30
2018-11-11T22:28:12.827Z,5.30
2018-11-11T22:30:41.796Z,5.20
2018-11-11T22:33:09.572Z,5.30
2018-11-11T22:35:37.088Z,5.20
2018-11-11T22:38:05.554Z,5.20
2018-11-11T22:40:34.033Z,5.20
2018-11-11T22:43:01.583Z,5.30
2018-11-11T22:45:29.585Z,5.30
2018-11-11T22:47:57.580Z,5.30
2018-11-11T22:50:25.236Z,5.30
2018-11-11T22:52:52.789Z,5.30
2018-11-11T22:55:21.023Z,5.30
2018-11-11T22:57:49.316Z,5.20
2018-11-11T23:00:24.326Z,5.30
2018-11-11T23:02:52.428Z,5.30
2018-11-11T23:05:20.935Z,5.30
2018-11-11T23:07:49.417Z,5.20
2018-11-11T23:10:17.295Z,5.20
2018-11-11T23:12:44.876Z,5.20
2018-11-11T23:15:13.889Z,5.30
2018-11-11T23:17:42.022Z,5.20
2018-11-11T23:20:11.231Z,5.10
2018-11-11T23:22:40.281Z,5.20
2018-11-11T23:25:10.078Z,5.20
2018-11-11T23:27:38.359Z,5.10
2018-11-11T23:30:08.654Z,5.20
2018-11-11T23:32:36.902Z,5.20
2018-11-11T23:35:05.060Z,5.10
2018-11-11T23:37:33.240Z,5.20
2018-11-11T23:40:00.772Z,5.10
2018-11-11T23:42:29.172Z,5.20
2018-11-11T23:44:56.692Z,5.10
2018-11-11T23:47:25.041Z,5.10
2018-11-11T23:49:53.228Z,5.10
2018-11-11T23:52:20.831Z,5.10
2018-11-11T23:54:48.868Z,5.10
2018-11-11T23:57:17.095Z,5.10
2018-11-11T23:59:45.407Z,5.10
